Time;durP1;ratioP1;P1;durP2;ratioP2;P2;SDS_P1;SDS_P2;PMS_P1;PMS_P2;Temp;Humidity;BMP_temperature;BMP_pressure;BME280_temperature;BME280_humidity;BME280_pressure;Samples;Min_cycle;Max_cycle;Signal;HPM_P1;HPM_P2
2021/06/25 00:00:42;;;;;;;31.90;18.27;;;18.00;98.80;;;;;;5015338;28;20057;-83
2021/06/25 00:03:08;;;;;;;23.33;17.10;;;18.00;98.80;;;;;;5009184;28;20066;-82
2021/06/25 00:05:33;;;;;;;24.85;15.73;;;18.00;98.80;;;;;;5013517;28;20065;-81
2021/06/25 00:07:59;;;;;;;34.45;18.00;;;18.00;98.80;;;;;;5007243;28;20046;-83
2021/06/25 00:10:24;;;;;;;22.67;16.45;;;18.00;98.80;;;;;;5038139;28;20078;-82
2021/06/25 00:12:50;;;;;;;24.63;16.80;;;18.00;98.70;;;;;;5002043;28;20095;-82
2021/06/25 00:15:16;;;;;;;30.60;16.17;;;18.10;98.70;;;;;;5008139;28;20266;-82
2021/06/25 00:17:41;;;;;;;29.63;17.60;;;18.10;98.70;;;;;;5019701;28;20038;-81
2021/06/25 00:20:08;;;;;;;22.25;14.57;;;18.10;98.60;;;;;;4999543;28;20057;-82
2021/06/25 00:22:34;;;;;;;23.48;16.38;;;18.10;98.60;;;;;;4997925;28;20069;-81
2021/06/25 00:25:00;;;;;;;25.23;16.33;;;18.10;98.60;;;;;;5003395;28;20491;-81
2021/06/25 00:27:26;;;;;;;24.15;16.52;;;18.10;98.50;;;;;;5015610;28;20077;-81
2021/06/25 00:29:52;;;;;;;22.63;16.10;;;18.10;98.60;;;;;;5004027;28;20068;-81
2021/06/25 00:32:17;;;;;;;26.95;17.00;;;18.10;98.60;;;;;;5013396;28;20105;-82
2021/06/25 00:34:43;;;;;;;25.25;16.98;;;18.00;98.60;;;;;;5025450;28;20420;-81
2021/06/25 00:37:08;;;;;;;26.92;17.00;;;18.10;98.60;;;;;;5019888;28;20038;-80
2021/06/25 00:39:35;;;;;;;27.13;16.55;;;18.10;98.60;;;;;;5003397;28;20046;-82
2021/06/25 00:42:00;;;;;;;32.13;17.65;;;18.00;98.60;;;;;;5022447;28;20060;-80
2021/06/25 00:44:26;;;;;;;27.35;17.80;;;18.00;98.60;;;;;;5016604;28;20042;-81
2021/06/25 00:46:52;;;;;;;30.40;17.98;;;18.00;98.60;;;;;;5004692;28;20045;-82
2021/06/25 00:49:17;;;;;;;27.80;16.88;;;18.00;98.70;;;;;;5005023;28;20046;-81
2021/06/25 00:51:43;;;;;;;26.23;17.05;;;18.00;98.80;;;;;;5001899;28;20037;-82
2021/06/25 00:54:10;;;;;;;25.40;16.98;;;18.00;98.80;;;;;;5007662;28;20670;-82
2021/06/25 00:56:37;;;;;;;24.23;15.70;;;18.00;98.80;;;;;;5006555;28;20061;-82
2021/06/25 00:59:03;;;;;;;23.58;16.88;;;18.00;98.70;;;;;;5035419;28;20038;-83
2021/06/25 01:01:29;;;;;;;26.40;16.73;;;18.00;98.70;;;;;;5013863;28;20042;-82
2021/06/25 01:03:55;;;;;;;26.08;17.98;;;18.10;98.80;;;;;;5012376;28;20703;-82
2021/06/25 01:06:20;;;;;;;30.58;16.85;;;18.10;98.80;;;;;;5007922;28;20050;-81
2021/06/25 01:08:46;;;;;;;28.38;17.73;;;18.00;98.70;;;;;;5010437;28;20042;-83
2021/06/25 01:11:12;;;;;;;28.98;17.23;;;18.00;98.70;;;;;;5000830;28;20030;-82
2021/06/25 01:13:38;;;;;;;29.17;18.17;;;18.00;98.70;;;;;;5011109;28;20064;-79
2021/06/25 01:16:06;;;;;;;34.35;19.27;;;18.00;98.80;;;;;;5021034;28;20046;-81
2021/06/25 01:18:32;;;;;;;25.27;18.30;;;18.00;98.80;;;;;;5007151;28;20038;-82
2021/06/25 01:20:58;;;;;;;32.00;17.80;;;18.00;98.80;;;;;;5010714;28;20058;-81
2021/06/25 01:23:25;;;;;;;30.13;19.00;;;18.00;98.90;;;;;;5046899;28;20508;-82
2021/06/25 01:25:51;;;;;;;28.48;17.92;;;17.90;98.80;;;;;;5011413;28;20054;-82
2021/06/25 01:28:16;;;;;;;35.90;17.85;;;17.90;98.90;;;;;;5018485;28;20038;-80
2021/06/25 01:30:45;;;;;;;27.85;19.63;;;17.90;98.90;;;;;;5014394;28;20045;-81
2021/06/25 01:33:13;;;;;;;29.70;19.10;;;17.90;98.90;;;;;;5016726;28;20076;-82
2021/06/25 01:35:39;;;;;;;28.33;17.88;;;17.90;99.00;;;;;;5012822;28;20057;-82
2021/06/25 01:38:05;;;;;;;25.75;17.63;;;17.90;99.00;;;;;;5010162;28;20049;-80
2021/06/25 01:40:31;;;;;;;29.30;20.05;;;17.80;98.90;;;;;;5042579;28;20421;-82
2021/06/25 01:43:00;;;;;;;27.80;16.88;;;17.80;98.90;;;;;;5011278;28;20049;-80
2021/06/25 01:45:28;;;;;;;26.25;17.27;;;17.90;98.90;;;;;;5009810;28;20302;-79
2021/06/25 01:47:54;;;;;;;26.75;17.95;;;17.80;98.90;;;;;;5000912;28;20034;-83
2021/06/25 01:50:26;;;;;;;30.05;17.92;;;17.90;98.90;;;;;;5017075;28;20108;-81
2021/06/25 01:52:57;;;;;;;26.80;18.38;;;17.80;98.90;;;;;;5021307;28;20042;-81
2021/06/25 01:55:24;;;;;;;28.25;17.88;;;17.80;98.90;;;;;;5010905;28;20427;-82
2021/06/25 01:57:50;;;;;;;26.42;16.42;;;17.80;98.90;;;;;;5035331;28;20401;-81
2021/06/25 02:00:16;;;;;;;26.17;17.58;;;17.80;98.90;;;;;;5016044;28;20037;-82
2021/06/25 02:02:42;;;;;;;30.92;18.92;;;17.80;98.90;;;;;;5001278;28;20034;-81
2021/06/25 02:05:09;;;;;;;33.03;18.67;;;17.80;98.90;;;;;;5012424;28;20164;-82
2021/06/25 02:07:35;;;;;;;34.28;19.73;;;17.80;98.90;;;;;;5009929;28;20081;-81
2021/06/25 02:10:01;;;;;;;26.30;17.52;;;17.80;98.90;;;;;;5011621;28;20070;-80
2021/06/25 02:12:27;;;;;;;28.58;17.77;;;17.80;98.90;;;;;;5000825;28;20038;-83
2021/06/25 02:14:53;;;;;;;28.73;18.08;;;17.80;98.90;;;;;;4999121;28;20042;-81
2021/06/25 02:17:19;;;;;;;29.42;17.95;;;17.80;98.90;;;;;;5009838;28;20053;-82
2021/06/25 02:19:45;;;;;;;26.13;17.83;;;17.80;98.90;;;;;;5019297;28;20041;-81
2021/06/25 02:22:11;;;;;;;28.58;17.80;;;17.90;98.90;;;;;;5004567;28;20085;-81
2021/06/25 02:24:37;;;;;;;31.05;17.52;;;17.90;98.90;;;;;;5010721;28;20068;-81
2021/06/25 02:27:04;;;;;;;28.10;17.10;;;17.80;98.80;;;;;;5020739;28;20395;-82
2021/06/25 02:29:30;;;;;;;29.73;16.38;;;17.80;98.80;;;;;;5027990;28;20041;-84
2021/06/25 02:31:56;;;;;;;24.90;17.48;;;17.80;98.80;;;;;;5008740;28;20030;-81
2021/06/25 02:34:21;;;;;;;26.00;17.33;;;17.80;98.80;;;;;;5001483;28;20050;-82
2021/06/25 02:36:47;;;;;;;25.10;16.20;;;17.90;98.80;;;;;;5014686;28;20038;-82
2021/06/25 02:39:13;;;;;;;25.70;17.17;;;17.80;98.80;;;;;;5017586;28;20042;-82
2021/06/25 02:41:39;;;;;;;30.35;17.20;;;17.80;98.80;;;;;;5002548;28;20076;-81
2021/06/25 02:44:06;;;;;;;30.85;17.85;;;17.90;98.80;;;;;;5017704;28;20088;-81
2021/06/25 02:46:31;;;;;;;28.70;19.20;;;17.80;98.70;;;;;;5010784;28;20398;-79
2021/06/25 02:48:57;;;;;;;25.33;17.48;;;17.80;98.80;;;;;;4998894;28;20054;-81
2021/06/25 02:51:23;;;;;;;33.22;18.63;;;17.80;98.80;;;;;;5000776;28;20042;-79
2021/06/25 02:53:48;;;;;;;32.63;18.20;;;17.80;98.80;;;;;;5013928;28;20053;-82
2021/06/25 02:56:14;;;;;;;33.50;19.00;;;17.80;98.80;;;;;;5000285;28;20030;-82
2021/06/25 02:58:39;;;;;;;29.80;18.38;;;17.70;98.80;;;;;;5044003;28;20038;-82
2021/06/25 03:01:05;;;;;;;31.13;18.08;;;17.70;98.90;;;;;;5002740;28;20105;-82
2021/06/25 03:03:30;;;;;;;26.65;18.15;;;17.70;98.90;;;;;;5002593;28;20106;-82
2021/06/25 03:05:56;;;;;;;28.00;18.02;;;17.70;99.00;;;;;;5006092;28;20034;-82
2021/06/25 03:08:22;;;;;;;25.50;17.88;;;17.70;99.00;;;;;;5007857;28;20065;-82
2021/06/25 03:10:49;;;;;;;30.55;18.50;;;17.70;99.10;;;;;;5001455;28;20405;-81
2021/06/25 03:13:16;;;;;;;34.28;19.63;;;17.70;99.10;;;;;;5014991;28;20097;-80
2021/06/25 03:15:42;;;;;;;32.15;19.17;;;17.70;99.20;;;;;;5017741;28;20052;-80
2021/06/25 03:18:08;;;;;;;33.95;19.80;;;17.70;99.30;;;;;;5009022;28;20600;-81
2021/06/25 03:20:34;;;;;;;31.08;20.40;;;17.70;99.30;;;;;;5001284;28;20046;-81
2021/06/25 03:22:59;;;;;;;26.92;18.30;;;17.70;99.20;;;;;;5010019;28;20065;-80
2021/06/25 03:25:25;;;;;;;32.55;18.80;;;17.70;99.20;;;;;;5004108;28;20037;-81
2021/06/25 03:27:50;;;;;;;29.17;18.90;;;17.70;99.30;;;;;;5007662;28;20038;-81
2021/06/25 03:30:16;;;;;;;29.35;19.00;;;17.70;99.30;;;;;;5010760;28;20375;-81
2021/06/25 03:32:42;;;;;;;32.78;19.10;;;17.70;99.20;;;;;;5016911;28;20056;-82
2021/06/25 03:35:09;;;;;;;32.10;20.02;;;17.70;99.20;;;;;;5010662;28;20128;-80
2021/06/25 03:37:35;;;;;;;28.50;18.55;;;17.70;99.20;;;;;;5004731;28;20096;-80
2021/06/25 03:40:04;;;;;;;37.15;20.60;;;17.70;99.10;;;;;;5004897;28;20081;-80
2021/06/25 03:42:30;;;;;;;29.88;19.13;;;17.70;99.20;;;;;;5005693;28;20049;-81
2021/06/25 03:44:55;;;;;;;30.38;18.60;;;17.70;99.20;;;;;;5009004;28;20076;-80
2021/06/25 03:47:20;;;;;;;31.77;20.13;;;17.60;99.20;;;;;;5018511;28;20041;-81
2021/06/25 03:49:46;;;;;;;31.48;19.77;;;17.60;99.20;;;;;;5005522;28;20042;-82
2021/06/25 03:52:12;;;;;;;35.80;20.55;;;17.60;99.30;;;;;;5011076;28;20058;-82
2021/06/25 03:54:37;;;;;;;35.13;20.00;;;17.60;99.30;;;;;;4997578;28;20053;-81
2021/06/25 03:57:03;;;;;;;34.08;21.33;;;17.60;99.30;;;;;;5012353;28;20048;-80
2021/06/25 03:59:29;;;;;;;33.78;20.70;;;17.60;99.30;;;;;;5007521;28;20364;-81
2021/06/25 04:01:54;;;;;;;28.27;19.30;;;17.70;99.40;;;;;;5007266;28;20305;-81
2021/06/25 04:04:20;;;;;;;32.05;19.88;;;17.70;99.10;;;;;;5030900;28;20050;-81
2021/06/25 04:06:45;;;;;;;33.30;19.70;;;17.70;99.10;;;;;;5009023;28;20045;-80
2021/06/25 04:09:11;;;;;;;29.02;17.55;;;17.70;99.10;;;;;;5010150;28;20038;-81
2021/06/25 04:11:37;;;;;;;27.35;18.75;;;17.70;99.10;;;;;;5007922;28;20401;-81
2021/06/25 04:14:03;;;;;;;33.45;19.85;;;17.70;99.10;;;;;;5017805;28;20049;-81
2021/06/25 04:16:28;;;;;;;29.60;17.65;;;17.70;99.10;;;;;;5021249;28;20046;-80
2021/06/25 04:18:54;;;;;;;31.73;19.60;;;17.70;99.10;;;;;;5003966;28;20117;-82
2021/06/25 04:21:21;;;;;;;27.15;17.88;;;17.80;99.10;;;;;;4999426;28;20638;-81
2021/06/25 04:23:47;;;;;;;31.85;18.13;;;17.80;99.10;;;;;;4998105;28;20045;-82
2021/06/25 04:26:13;;;;;;;29.77;18.52;;;17.80;99.10;;;;;;4998535;28;20057;-81
2021/06/25 04:28:38;;;;;;;28.45;19.45;;;17.80;99.10;;;;;;5033348;28;20034;-81
2021/06/25 04:31:04;;;;;;;30.17;18.90;;;17.90;99.10;;;;;;5028736;28;20104;-82
2021/06/25 04:33:29;;;;;;;28.73;17.98;;;17.90;99.00;;;;;;5015853;28;20092;-81
2021/06/25 04:35:55;;;;;;;30.98;19.58;;;17.90;99.00;;;;;;5016425;28;20073;-80
2021/06/25 04:38:22;;;;;;;38.90;19.85;;;17.90;98.90;;;;;;5015659;28;20141;-81
2021/06/25 04:40:48;;;;;;;31.27;18.75;;;17.90;99.00;;;;;;5005520;28;20038;-80
2021/06/25 04:43:15;;;;;;;31.25;18.23;;;17.90;98.90;;;;;;4996583;28;20046;-80
2021/06/25 04:45:42;;;;;;;34.28;16.58;;;17.90;98.90;;;;;;5006191;28;20084;-81
2021/06/25 04:48:10;;;;;;;29.13;18.52;;;17.90;98.80;;;;;;5007235;28;20034;-81
2021/06/25 04:50:37;;;;;;;29.98;17.70;;;17.90;98.80;;;;;;5006180;28;20424;-81
2021/06/25 04:53:02;;;;;;;29.95;18.05;;;17.90;98.80;;;;;;5017721;28;20046;-79
2021/06/25 04:55:28;;;;;;;28.40;17.35;;;18.00;98.80;;;;;;5016406;28;20127;-80
2021/06/25 04:57:55;;;;;;;29.80;16.98;;;18.00;98.80;;;;;;5016381;28;20048;-81
2021/06/25 05:00:23;;;;;;;35.05;18.55;;;18.00;98.80;;;;;;5030733;28;20041;-81
2021/06/25 05:02:49;;;;;;;31.90;19.27;;;18.00;98.90;;;;;;5009281;28;20043;-82
2021/06/25 05:05:15;;;;;;;27.33;18.25;;;18.00;98.80;;;;;;5011011;28;20058;-82
2021/06/25 05:07:42;;;;;;;30.00;18.35;;;18.10;98.80;;;;;;5023718;28;20159;-81
2021/06/25 05:10:08;;;;;;;36.42;18.30;;;18.10;98.80;;;;;;5007099;28;20049;-82
2021/06/25 05:12:34;;;;;;;28.13;17.23;;;18.10;98.70;;;;;;5006172;28;20041;-80
2021/06/25 05:14:59;;;;;;;31.77;19.00;;;18.10;98.60;;;;;;4999270;28;20042;-81
2021/06/25 05:17:28;;;;;;;28.17;18.60;;;18.20;98.60;;;;;;4996428;28;20061;-80
2021/06/25 05:19:55;;;;;;;26.38;16.52;;;18.20;98.60;;;;;;4996328;28;20045;-79
2021/06/25 05:22:20;;;;;;;29.65;17.17;;;18.30;98.70;;;;;;4995698;28;20042;-81
2021/06/25 05:24:46;;;;;;;24.63;16.58;;;18.30;98.60;;;;;;4995517;28;20041;-80
2021/06/25 05:27:11;;;;;;;27.48;16.95;;;18.30;98.40;;;;;;4996344;28;20046;-80
2021/06/25 05:29:37;;;;;;;22.05;16.15;;;18.40;98.40;;;;;;4996766;28;20034;-80
2021/06/25 05:32:03;;;;;;;28.90;15.68;;;18.40;98.30;;;;;;4996554;28;20125;-81
2021/06/25 05:34:29;;;;;;;24.58;14.65;;;18.40;98.20;;;;;;4996507;28;20034;-81
2021/06/25 05:36:55;;;;;;;19.00;14.30;;;18.40;98.10;;;;;;4995422;28;20069;-80
2021/06/25 05:39:20;;;;;;;21.85;14.65;;;18.50;98.00;;;;;;4996644;28;20080;-80
2021/06/25 05:41:46;;;;;;;19.17;13.68;;;18.50;98.10;;;;;;4995428;28;20107;-81
2021/06/25 05:44:12;;;;;;;20.52;13.68;;;18.60;98.00;;;;;;4996662;28;20382;-81
2021/06/25 05:46:37;;;;;;;26.17;14.30;;;18.70;98.00;;;;;;4996460;28;20061;-82
2021/06/25 05:49:03;;;;;;;27.98;14.35;;;18.80;97.70;;;;;;4996374;28;20056;-81
2021/06/25 05:51:28;;;;;;;21.77;14.20;;;18.80;97.50;;;;;;4996593;28;20073;-81
2021/06/25 05:53:54;;;;;;;21.27;14.68;;;18.90;97.50;;;;;;4996826;28;20081;-81
2021/06/25 05:56:19;;;;;;;22.33;13.40;;;19.00;97.60;;;;;;4996947;28;20159;-82
2021/06/25 05:58:45;;;;;;;18.65;13.73;;;19.00;97.50;;;;;;4996601;28;20471;-82
2021/06/25 06:01:10;;;;;;;24.90;13.98;;;19.10;97.00;;;;;;4995717;28;20157;-80
2021/06/25 06:03:37;;;;;;;20.65;12.18;;;19.10;96.80;;;;;;5011579;28;20042;-80
2021/06/25 06:06:03;;;;;;;20.27;11.80;;;19.10;96.50;;;;;;4996268;28;20042;-82
2021/06/25 06:08:28;;;;;;;18.48;11.73;;;19.20;96.30;;;;;;4996424;28;20045;-81
2021/06/25 06:10:54;;;;;;;19.58;12.15;;;19.30;96.10;;;;;;4995665;28;20042;-81
2021/06/25 06:13:20;;;;;;;15.60;10.88;;;19.30;96.10;;;;;;4998747;28;20038;-85
2021/06/25 06:15:45;;;;;;;16.02;11.27;;;19.40;96.00;;;;;;5031761;28;20038;-81
2021/06/25 06:18:19;;;;;;;16.65;10.23;;;19.50;95.70;;;;;;4999896;28;20053;-80
2021/06/25 06:20:44;;;;;;;13.88;9.57;;;19.60;95.80;;;;;;4999184;28;20089;-80
2021/06/25 06:31:23;;;;;;;14.10;9.25;;;20.00;95.50;;;;;;4999917;28;20104;-81
2021/06/25 06:34:09;;;;;;;12.43;10.13;;;20.10;94.90;;;;;;5000273;28;20034;-80
2021/06/25 06:36:40;;;;;;;15.27;9.82;;;20.20;94.70;;;;;;4999333;28;20050;-80
2021/06/25 06:39:07;;;;;;;15.35;9.05;;;20.20;94.90;;;;;;4999209;28;20038;-81
2021/06/25 06:41:33;;;;;;;13.93;9.57;;;20.40;93.80;;;;;;4999378;28;20405;-80
2021/06/25 06:43:59;;;;;;;20.10;10.43;;;20.50;93.70;;;;;;4999554;28;20138;-80
2021/06/25 06:46:25;;;;;;;14.77;9.60;;;20.60;93.80;;;;;;5014913;28;20042;-80
2021/06/25 06:48:51;;;;;;;15.60;10.18;;;20.60;93.50;;;;;;4999025;28;20104;-80
2021/06/25 06:51:17;;;;;;;17.00;9.75;;;20.70;94.10;;;;;;4998057;28;20046;-81
2021/06/25 06:53:43;;;;;;;12.20;9.18;;;20.70;94.30;;;;;;4999031;28;20137;-81
2021/06/25 06:56:10;;;;;;;11.55;9.07;;;20.80;93.90;;;;;;5014639;28;20077;-81
2021/06/25 06:58:37;;;;;;;9.80;8.18;;;20.80;93.30;;;;;;4998683;28;20046;-81
2021/06/25 07:01:03;;;;;;;11.30;8.15;;;20.90;93.20;;;;;;4999838;28;20122;-81
2021/06/25 07:03:28;;;;;;;10.38;8.07;;;20.90;92.60;;;;;;4999003;28;20045;-79
2021/06/25 07:05:54;;;;;;;11.85;7.90;;;20.90;92.50;;;;;;4999331;28;20046;-80
2021/06/25 07:08:19;;;;;;;10.55;8.18;;;20.90;92.90;;;;;;4999027;28;20117;-79
2021/06/25 07:10:45;;;;;;;13.25;8.50;;;20.90;93.30;;;;;;4999150;28;20113;-80
2021/06/25 07:13:12;;;;;;;14.18;8.70;;;20.90;93.30;;;;;;4999655;28;20100;-80
2021/06/25 07:15:37;;;;;;;17.65;8.75;;;20.90;93.00;;;;;;4999216;28;20389;-81
2021/06/25 07:18:04;;;;;;;9.00;8.10;;;20.90;92.80;;;;;;4998450;28;20108;-79
2021/06/25 07:20:30;;;;;;;10.60;8.00;;;20.90;92.50;;;;;;4998569;28;20030;-79
2021/06/25 07:22:55;;;;;;;12.27;8.52;;;20.90;92.70;;;;;;4998654;28;20112;-80
2021/06/25 07:25:21;;;;;;;12.95;8.65;;;21.00;93.30;;;;;;5013209;28;20042;-81
2021/06/25 07:27:46;;;;;;;10.90;8.40;;;21.00;93.20;;;;;;4998074;28;20046;-81
2021/06/25 07:30:13;;;;;;;14.52;7.80;;;21.00;93.30;;;;;;5030586;28;20508;-80
2021/06/25 07:32:38;;;;;;;10.25;6.68;;;21.10;93.20;;;;;;4997803;28;20464;-80
2021/06/25 07:35:05;;;;;;;9.88;6.57;;;21.20;93.00;;;;;;4998613;28;20042;-80
2021/06/25 07:37:31;;;;;;;12.82;7.10;;;21.30;91.80;;;;;;4998425;28;20357;-81
2021/06/25 07:39:56;;;;;;;10.45;6.95;;;21.30;91.90;;;;;;4998552;28;20042;-80
2021/06/25 07:42:22;;;;;;;8.55;6.10;;;21.50;92.00;;;;;;4998717;28;20046;-81
2021/06/25 07:44:49;;;;;;;9.98;5.50;;;21.60;90.20;;;;;;4998467;28;20045;-80
2021/06/25 07:47:15;;;;;;;15.13;6.60;;;21.70;90.10;;;;;;4998138;28;20054;-81
2021/06/25 07:49:41;;;;;;;14.73;7.65;;;21.70;91.30;;;;;;5013868;28;20077;-81
2021/06/25 07:52:06;;;;;;;11.50;7.65;;;21.70;91.30;;;;;;4997805;28;20038;-80
2021/06/25 07:54:32;;;;;;;12.63;7.22;;;21.70;91.20;;;;;;4997666;28;20294;-81
2021/06/25 07:56:57;;;;;;;11.85;8.25;;;21.70;90.70;;;;;;4998176;28;20057;-81
2021/06/25 07:59:23;;;;;;;14.48;9.18;;;21.70;91.80;;;;;;4997544;28;20056;-82
2021/06/25 08:01:48;;;;;;;19.05;10.15;;;21.70;92.60;;;;;;5029930;28;20042;-80
2021/06/25 08:04:14;;;;;;;18.63;10.52;;;21.80;92.50;;;;;;4997534;28;20034;-80
2021/06/25 08:06:39;;;;;;;19.00;10.23;;;21.80;91.80;;;;;;5029934;28;20046;-80
2021/06/25 08:09:07;;;;;;;16.40;10.27;;;21.80;92.30;;;;;;4997456;28;20035;-80
2021/06/25 08:11:32;;;;;;;14.32;9.48;;;21.90;91.90;;;;;;4997674;28;20045;-81
2021/06/25 08:13:59;;;;;;;19.02;9.35;;;21.90;92.00;;;;;;4997262;28;20042;-80
2021/06/25 08:16:24;;;;;;;16.35;10.07;;;21.90;91.70;;;;;;4998164;28;20034;-82
2021/06/25 08:18:56;;;;;;;20.52;9.80;;;22.00;92.10;;;;;;4997695;28;20115;-81
2021/06/25 08:21:27;;;;;;;15.85;9.43;;;22.00;92.20;;;;;;4997919;28;20053;-81
2021/06/25 08:23:52;;;;;;;18.70;10.13;;;22.20;91.60;;;;;;4998720;28;20041;-81
2021/06/25 08:26:18;;;;;;;11.65;8.52;;;22.20;90.70;;;;;;4997529;28;20038;-81
2021/06/25 08:28:44;;;;;;;11.60;8.35;;;22.30;89.70;;;;;;5030054;28;20053;-80
2021/06/25 08:31:09;;;;;;;12.65;8.73;;;22.50;88.50;;;;;;4997351;28;20034;-81
2021/06/25 08:33:35;;;;;;;12.50;8.65;;;22.50;89.20;;;;;;4997222;28;20041;-81
2021/06/25 08:36:00;;;;;;;13.85;8.80;;;22.60;87.40;;;;;;5029567;28;20050;-81
2021/06/25 08:38:26;;;;;;;12.50;8.50;;;22.60;88.10;;;;;;4997120;28;20332;-81
2021/06/25 08:40:51;;;;;;;10.95;8.45;;;22.70;87.60;;;;;;4997196;28;20046;-81
2021/06/25 08:43:17;;;;;;;14.88;8.43;;;22.80;88.90;;;;;;4996719;28;20104;-80
2021/06/25 08:45:44;;;;;;;13.48;7.80;;;22.90;89.60;;;;;;4996865;28;20357;-82
2021/06/25 08:48:11;;;;;;;14.63;8.07;;;23.10;86.20;;;;;;5012246;28;20108;-81
2021/06/25 08:50:40;;;;;;;10.10;7.97;;;23.40;88.30;;;;;;4996528;28;20040;-81
2021/06/25 08:53:06;;;;;;;12.18;7.97;;;23.60;85.50;;;;;;5012853;28;20038;-81
2021/06/25 08:55:32;;;;;;;12.77;7.97;;;23.90;82.10;;;;;;4996838;28;20121;-82
2021/06/25 08:57:58;;;;;;;13.40;6.85;;;24.00;83.10;;;;;;4998042;28;20117;-82
2021/06/25 09:00:23;;;;;;;10.38;6.80;;;24.10;81.70;;;;;;4996980;28;20038;-81
2021/06/25 09:02:49;;;;;;;8.35;6.68;;;24.20;81.70;;;;;;4996866;28;20042;-80
2021/06/25 09:05:21;;;;;;;13.20;6.68;;;24.20;81.50;;;;;;5028713;28;20145;-82
2021/06/25 09:07:46;;;;;;;9.77;6.87;;;24.30;81.10;;;;;;5012715;28;20046;-80
2021/06/25 09:10:14;;;;;;;8.82;6.78;;;24.30;81.00;;;;;;4996568;28;20049;-82
2021/06/25 09:12:55;;;;;;;11.82;6.40;;;24.40;81.30;;;;;;4996737;28;20058;-82
2021/06/25 09:15:21;;;;;;;14.65;7.65;;;24.40;79.20;;;;;;5028921;28;20128;-83
2021/06/25 09:17:58;;;;;;;8.55;7.20;;;24.50;80.70;;;;;;5012311;28;20181;-82
2021/06/25 09:20:55;;;;;;;8.65;6.35;;;24.40;82.40;;;;;;4996408;28;20053;-81
2021/06/25 09:23:39;;;;;;;11.88;7.63;;;24.40;81.50;;;;;;4995990;28;20049;-82
2021/06/25 09:26:10;;;;;;;11.40;7.90;;;24.40;81.30;;;;;;5028194;28;20038;-81
2021/06/25 09:28:40;;;;;;;17.00;9.32;;;24.20;80.90;;;;;;4996266;28;20045;-81
2021/06/25 09:31:17;;;;;;;11.45;7.70;;;24.00;81.80;;;;;;5012717;28;20691;-83
2021/06/25 09:33:44;;;;;;;12.50;7.70;;;23.90;82.40;;;;;;4995596;28;20096;-81
2021/06/25 09:36:22;;;;;;;13.63;7.60;;;23.80;82.10;;;;;;4997122;28;20038;-82
2021/06/25 09:38:58;;;;;;;12.95;7.32;;;23.60;82.40;;;;;;4996383;28;20073;-81
2021/06/25 09:41:25;;;;;;;14.35;7.45;;;23.50;83.50;;;;;;4995574;28;20047;-81
2021/06/25 09:44:03;;;;;;;9.57;7.38;;;23.40;83.30;;;;;;4996176;28;20042;-82
2021/06/25 09:46:31;;;;;;;8.73;6.32;;;23.40;84.00;;;;;;4996250;28;20291;-81
2021/06/25 09:49:04;;;;;;;9.35;7.28;;;23.30;83.70;;;;;;4999607;28;20398;-80
2021/06/25 09:51:30;;;;;;;13.65;7.85;;;23.20;83.80;;;;;;5000119;28;20041;-81
2021/06/25 09:54:06;;;;;;;10.85;7.53;;;23.20;84.40;;;;;;4999787;28;20173;-81
2021/06/25 09:56:35;;;;;;;12.40;7.38;;;23.20;85.90;;;;;;5015735;28;20042;-81
2021/06/25 09:59:52;;;;;;;10.07;6.47;;;23.20;85.30;;;;;;5005370;28;20045;-81
2021/06/25 10:02:18;;;;;;;8.55;5.53;;;23.20;85.10;;;;;;5018985;28;20046;-81
2021/06/25 10:04:48;;;;;;;12.43;7.53;;;23.40;83.90;;;;;;5020196;28;20044;-80
2021/06/25 10:07:29;;;;;;;9.43;6.03;;;23.40;84.30;;;;;;5035903;28;20053;-81
2021/06/25 10:10:02;;;;;;;11.07;7.32;;;23.40;84.00;;;;;;5020131;28;20034;-82
2021/06/25 10:12:27;;;;;;;11.70;8.30;;;23.50;84.90;;;;;;5021103;28;20119;-81
2021/06/25 10:14:54;;;;;;;21.70;9.02;;;23.40;85.00;;;;;;5022662;28;20263;-80
2021/06/25 10:17:26;;;;;;;14.50;9.52;;;23.30;87.30;;;;;;5036812;28;20049;-81
2021/06/25 10:19:52;;;;;;;14.27;9.05;;;23.10;88.50;;;;;;5020356;28;20042;-81
2021/06/25 10:22:25;;;;;;;11.98;9.73;;;23.00;88.90;;;;;;5019687;28;20038;-80
2021/06/25 10:24:52;;;;;;;14.95;9.95;;;22.90;88.30;;;;;;5027240;28;20050;-80
2021/06/25 10:27:19;;;;;;;16.20;10.05;;;22.80;89.30;;;;;;5029030;28;20084;-81
2021/06/25 10:29:46;;;;;;;14.73;10.07;;;22.80;88.50;;;;;;5020592;28;20029;-81
2021/06/25 10:32:12;;;;;;;15.50;10.35;;;22.70;89.00;;;;;;5018523;28;20045;-83
2021/06/25 10:34:39;;;;;;;19.40;10.10;;;22.70;89.90;;;;;;5019372;28;20049;-80
2021/06/25 10:37:09;;;;;;;16.15;11.25;;;22.60;90.40;;;;;;5019296;28;20133;-81
2021/06/25 10:39:36;;;;;;;16.00;10.93;;;22.50;90.80;;;;;;5019803;28;20065;-81
2021/06/25 10:42:04;;;;;;;13.88;10.85;;;22.50;90.90;;;;;;5019052;28;20049;-80
2021/06/25 10:44:37;;;;;;;15.63;9.02;;;22.50;90.80;;;;;;5019099;28;20321;-80
2021/06/25 10:47:14;;;;;;;13.27;10.30;;;22.50;91.60;;;;;;5019541;28;20057;-82
2021/06/25 10:49:58;;;;;;;14.73;11.10;;;22.50;90.60;;;;;;5021253;28;20057;-82
2021/06/25 10:52:24;;;;;;;11.15;9.52;;;22.60;91.70;;;;;;5020705;28;20429;-82
2021/06/25 10:55:04;;;;;;;13.77;8.98;;;22.70;91.20;;;;;;5034526;28;20041;-81
2021/06/25 10:57:31;;;;;;;10.07;8.95;;;22.90;90.70;;;;;;5046257;28;20038;-83
2021/06/25 10:59:57;;;;;;;14.55;9.50;;;23.00;89.30;;;;;;5016896;28;20111;-80
2021/06/25 11:02:41;;;;;;;16.23;9.00;;;23.10;89.90;;;;;;5018144;28;20444;-82
2021/06/25 11:05:21;;;;;;;13.60;8.73;;;23.20;88.00;;;;;;5017769;28;20045;-81
2021/06/25 11:07:48;;;;;;;13.65;9.10;;;23.30;87.60;;;;;;5017911;28;20133;-82
2021/06/25 11:10:24;;;;;;;9.57;8.00;;;23.40;87.60;;;;;;5018398;28;20046;-82
2021/06/25 11:13:10;;;;;;;12.82;8.32;;;23.50;87.60;;;;;;5017145;28;20393;-81
2021/06/25 11:15:36;;;;;;;12.35;7.00;;;23.50;85.20;;;;;;5016929;28;20042;-80
2021/06/25 11:18:13;;;;;;;13.05;7.75;;;23.60;85.30;;;;;;5017821;28;20048;-80
2021/06/25 11:20:55;;;;;;;14.90;7.65;;;23.80;85.90;;;;;;5019288;28;20421;-81
2021/06/25 11:23:24;;;;;;;9.90;6.78;;;23.80;84.30;;;;;;5018458;28;20603;-81
2021/06/25 11:25:58;;;;;;;8.98;7.57;;;23.90;84.60;;;;;;5023058;28;20098;-81
2021/06/25 11:28:26;;;;;;;9.05;6.60;;;24.00;85.30;;;;;;5052726;28;20045;-82
2021/06/25 11:31:01;;;;;;;9.98;7.43;;;24.00;82.80;;;;;;5017829;28;20184;-82
2021/06/25 11:33:34;;;;;;;8.65;7.45;;;24.00;82.60;;;;;;5017601;28;20038;-81
2021/06/25 11:36:22;;;;;;;8.68;6.32;;;24.00;83.40;;;;;;5017201;28;20346;-82
2021/06/25 11:39:09;;;;;;;11.95;7.00;;;23.90;83.80;;;;;;5017582;28;20029;-81
2021/06/25 11:41:51;;;;;;;8.63;7.50;;;23.80;84.30;;;;;;5017705;28;20037;-83
2021/06/25 11:44:34;;;;;;;7.82;6.90;;;23.80;83.60;;;;;;5017517;28;20137;-82
2021/06/25 11:47:09;;;;;;;8.18;6.30;;;23.80;83.40;;;;;;5017970;28;20038;-81
2021/06/25 11:49:40;;;;;;;9.65;6.47;;;23.80;84.20;;;;;;5016351;28;20067;-82
2021/06/25 11:52:30;;;;;;;9.60;7.18;;;23.80;84.60;;;;;;5042712;28;20046;-81
2021/06/25 11:55:05;;;;;;;11.30;7.60;;;23.90;85.60;;;;;;5035720;28;20121;-82
2021/06/25 11:57:35;;;;;;;10.77;7.28;;;24.00;83.60;;;;;;5009997;28;20067;-82
2021/06/25 12:00:07;;;;;;;9.18;7.40;;;24.00;83.70;;;;;;5016510;28;20137;-83
2021/06/25 12:02:57;;;;;;;10.80;7.25;;;24.00;83.80;;;;;;5017830;28;20064;-82
2021/06/25 12:05:31;;;;;;;11.20;7.25;;;24.10;83.80;;;;;;5025960;28;20044;-81
2021/06/25 12:08:06;;;;;;;10.13;7.47;;;24.20;83.20;;;;;;5010414;28;20072;-82
2021/06/25 12:10:32;;;;;;;11.02;7.18;;;24.30;80.60;;;;;;5009840;28;20037;-82
2021/06/25 12:13:00;;;;;;;7.97;6.60;;;24.30;80.30;;;;;;5014358;28;20037;-83
2021/06/25 12:15:27;;;;;;;13.13;7.47;;;24.30;80.90;;;;;;5018593;28;20124;-83
2021/06/25 12:17:55;;;;;;;11.02;5.95;;;24.30;80.80;;;;;;5016689;28;20041;-82
2021/06/25 12:20:29;;;;;;;7.53;4.95;;;24.40;81.40;;;;;;5028645;28;20080;-82
2021/06/25 12:23:03;;;;;;;9.00;5.28;;;24.40;80.20;;;;;;5028122;28;20041;-80
2021/06/25 12:25:55;;;;;;;6.88;4.95;;;24.60;83.30;;;;;;5016886;28;20121;-82
2021/06/25 12:28:23;;;;;;;6.80;5.30;;;24.70;81.00;;;;;;5006728;28;20042;-81
2021/06/25 12:31:00;;;;;;;8.07;5.82;;;24.90;78.80;;;;;;5007112;28;20267;-83
2021/06/25 12:33:32;;;;;;;6.85;4.80;;;24.90;80.20;;;;;;5023234;28;20309;-82
2021/06/25 12:36:01;;;;;;;5.55;4.43;;;25.00;77.20;;;;;;5038072;28;20139;-81
2021/06/25 12:38:28;;;;;;;8.52;5.47;;;25.10;78.70;;;;;;5037433;28;20596;-82
2021/06/25 12:40:58;;;;;;;8.13;5.45;;;25.20;80.50;;;;;;5043393;28;20051;-82
2021/06/25 12:43:30;;;;;;;7.28;4.85;;;25.30;75.90;;;;;;5038220;28;20129;-83
2021/06/25 12:46:11;;;;;;;7.45;4.50;;;25.40;76.30;;;;;;5025160;28;20072;-83